sensor_id;sensor_type;location;lat;lon;timestamp;pressure;altitude;pressure_sealevel;temperature;humidity
10466;BME280;5280;42.600;23.556;2023-05-25T00:01:47;93329.34;;;15.69;90.28
10466;BME280;5280;42.600;23.556;2023-05-25T00:04:15;93353.16;;;15.88;89.60
10466;BME280;5280;42.600;23.556;2023-05-25T00:06:44;93356.75;;;15.79;88.87
10466;BME280;5280;42.600;23.556;2023-05-25T00:09:12;93346.97;;;15.70;88.92
10466;BME280;5280;42.600;23.556;2023-05-25T00:11:39;93378.59;;;15.82;87.86
10466;BME280;5280;42.600;23.556;2023-05-25T00:14:06;93316.59;;;15.45;87.42
10466;BME280;5280;42.600;23.556;2023-05-25T00:16:33;93375.56;;;15.77;87.26
10466;BME280;5280;42.600;23.556;2023-05-25T00:19:03;93384.44;;;15.86;88.88
10466;BME280;5280;42.600;23.556;2023-05-25T00:21:32;93383.22;;;15.80;89.55
10466;BME280;5280;42.600;23.556;2023-05-25T00:24:02;93386.34;;;15.76;90.89
10466;BME280;5280;42.600;23.556;2023-05-25T00:26:29;93389.00;;;15.76;91.35
10466;BME280;5280;42.600;23.556;2023-05-25T00:28:56;93320.16;;;15.36;91.55
10466;BME280;5280;42.600;23.556;2023-05-25T00:31:24;93377.97;;;15.71;91.55
10466;BME280;5280;42.600;23.556;2023-05-25T00:33:51;93384.84;;;15.73;92.12
10466;BME280;5280;42.600;23.556;2023-05-25T00:36:18;93345.75;;;15.46;92.34
10466;BME280;5280;42.600;23.556;2023-05-25T00:38:46;93368.59;;;15.49;92.28
10466;BME280;5280;42.600;23.556;2023-05-25T00:41:15;93377.81;;;15.55;92.39
10466;BME280;5280;42.600;23.556;2023-05-25T00:43:44;93279.81;;;14.95;92.44
10466;BME280;5280;42.600;23.556;2023-05-25T00:46:12;93375.31;;;15.53;92.74
10466;BME280;5280;42.600;23.556;2023-05-25T00:48:40;93314.28;;;15.15;92.55
10466;BME280;5280;42.600;23.556;2023-05-25T00:51:09;93346.66;;;15.37;93.36
10466;BME280;5280;42.600;23.556;2023-05-25T00:53:36;93374.63;;;15.51;93.12
10466;BME280;5280;42.600;23.556;2023-05-25T00:56:11;93370.97;;;15.52;93.08
10466;BME280;5280;42.600;23.556;2023-05-25T00:58:41;93354.88;;;15.44;91.88
10466;BME280;5280;42.600;23.556;2023-05-25T01:01:09;93370.97;;;15.52;91.88
10466;BME280;5280;42.600;23.556;2023-05-25T01:03:38;93376.03;;;15.45;92.03
10466;BME280;5280;42.600;23.556;2023-05-25T01:06:11;93379.25;;;15.49;90.89
10466;BME280;5280;42.600;23.556;2023-05-25T01:08:43;93381.34;;;15.45;90.88
10466;BME280;5280;42.600;23.556;2023-05-25T01:11:15;93373.28;;;15.37;91.00
10466;BME280;5280;42.600;23.556;2023-05-25T01:13:50;93307.66;;;15.01;91.04
10466;BME280;5280;42.600;23.556;2023-05-25T01:16:19;93290.13;;;14.81;91.05
10466;BME280;5280;42.600;23.556;2023-05-25T01:18:46;93328.66;;;15.04;90.85
10466;BME280;5280;42.600;23.556;2023-05-25T01:21:20;93299.34;;;14.86;90.56
10466;BME280;5280;42.600;23.556;2023-05-25T01:23:53;93372.50;;;15.27;91.09
10466;BME280;5280;42.600;23.556;2023-05-25T01:26:23;93377.97;;;15.26;91.28
10466;BME280;5280;42.600;23.556;2023-05-25T01:28:51;93339.72;;;14.99;92.03
10466;BME280;5280;42.600;23.556;2023-05-25T01:31:21;93347.03;;;14.97;92.62
10466;BME280;5280;42.600;23.556;2023-05-25T01:33:49;93394.41;;;15.21;91.84
10466;BME280;5280;42.600;23.556;2023-05-25T01:36:21;93326.31;;;14.74;92.12
10466;BME280;5280;42.600;23.556;2023-05-25T01:38:48;93383.09;;;15.09;92.35
10466;BME280;5280;42.600;23.556;2023-05-25T01:41:16;93359.75;;;15.03;92.05
10466;BME280;5280;42.600;23.556;2023-05-25T01:43:43;93388.22;;;15.21;90.68
10466;BME280;5280;42.600;23.556;2023-05-25T01:46:17;93384.91;;;15.19;91.41
10466;BME280;5280;42.600;23.556;2023-05-25T01:48:56;93383.09;;;15.19;91.35
10466;BME280;5280;42.600;23.556;2023-05-25T01:51:39;93330.59;;;14.84;91.39
10466;BME280;5280;42.600;23.556;2023-05-25T01:54:12;93374.84;;;15.13;91.53
10466;BME280;5280;42.600;23.556;2023-05-25T01:56:44;93357.44;;;14.91;91.73
10466;BME280;5280;42.600;23.556;2023-05-25T01:59:13;93386.41;;;15.21;91.88
10466;BME280;5280;42.600;23.556;2023-05-25T02:01:41;93367.84;;;15.12;92.01
10466;BME280;5280;42.600;23.556;2023-05-25T02:04:10;93322.25;;;14.70;92.31
10466;BME280;5280;42.600;23.556;2023-05-25T02:06:41;93396.59;;;15.08;92.78
10466;BME280;5280;42.600;23.556;2023-05-25T02:09:08;93394.38;;;15.03;92.76
10466;BME280;5280;42.600;23.556;2023-05-25T02:11:35;93351.31;;;14.81;93.20
10466;BME280;5280;42.600;23.556;2023-05-25T02:14:03;93316.56;;;14.55;93.14
10466;BME280;5280;42.600;23.556;2023-05-25T02:16:30;93391.84;;;15.02;93.49
10466;BME280;5280;42.600;23.556;2023-05-25T02:18:57;93315.19;;;14.51;94.09
10466;BME280;5280;42.600;23.556;2023-05-25T02:21:24;93395.47;;;15.01;94.05
10466;BME280;5280;42.600;23.556;2023-05-25T02:23:52;93407.09;;;15.00;93.25
10466;BME280;5280;42.600;23.556;2023-05-25T02:26:30;93377.66;;;14.84;94.61
10466;BME280;5280;42.600;23.556;2023-05-25T02:29:03;93359.38;;;14.61;94.72
10466;BME280;5280;42.600;23.556;2023-05-25T02:31:30;93397.53;;;14.89;94.48
10466;BME280;5280;42.600;23.556;2023-05-25T02:33:57;93362.88;;;14.62;94.68
10466;BME280;5280;42.600;23.556;2023-05-25T02:36:24;93399.22;;;14.81;94.76
10466;BME280;5280;42.600;23.556;2023-05-25T02:38:54;93328.00;;;14.38;96.20
10466;BME280;5280;42.600;23.556;2023-05-25T02:41:21;93387.50;;;14.74;97.26
10466;BME280;5280;42.600;23.556;2023-05-25T02:43:49;93410.69;;;14.81;96.73
10466;BME280;5280;42.600;23.556;2023-05-25T02:46:16;93415.47;;;14.78;97.08
10466;BME280;5280;42.600;23.556;2023-05-25T02:48:43;93424.00;;;14.81;97.06
10466;BME280;5280;42.600;23.556;2023-05-25T02:51:09;93424.13;;;14.80;96.35
10466;BME280;5280;42.600;23.556;2023-05-25T02:53:37;93409.19;;;14.79;96.31
10466;BME280;5280;42.600;23.556;2023-05-25T02:56:05;93414.50;;;14.79;96.44
10466;BME280;5280;42.600;23.556;2023-05-25T02:58:34;93407.09;;;14.73;96.08
10466;BME280;5280;42.600;23.556;2023-05-25T03:01:01;93362.38;;;14.30;97.36
10466;BME280;5280;42.600;23.556;2023-05-25T03:03:35;93419.25;;;14.75;97.04
10466;BME280;5280;42.600;23.556;2023-05-25T03:06:02;93419.41;;;14.74;98.00
10466;BME280;5280;42.600;23.556;2023-05-25T03:08:29;93420.53;;;14.71;98.82
10466;BME280;5280;42.600;23.556;2023-05-25T03:10:56;93404.88;;;14.68;99.12
10466;BME280;5280;42.600;23.556;2023-05-25T03:13:27;93424.84;;;14.82;98.96
10466;BME280;5280;42.600;23.556;2023-05-25T03:15:54;93423.03;;;14.82;99.22
10466;BME280;5280;42.600;23.556;2023-05-25T03:18:21;93372.88;;;14.50;100.00
10466;BME280;5280;42.600;23.556;2023-05-25T03:20:48;93410.72;;;14.72;100.00
10466;BME280;5280;42.600;23.556;2023-05-25T03:23:15;93431.16;;;14.81;99.92
10466;BME280;5280;42.600;23.556;2023-05-25T03:25:42;93383.06;;;14.55;99.33
10466;BME280;5280;42.600;23.556;2023-05-25T03:28:08;93438.41;;;14.88;99.69
10466;BME280;5280;42.600;23.556;2023-05-25T03:30:37;93436.19;;;14.84;98.93
10466;BME280;5280;42.600;23.556;2023-05-25T03:33:04;93427.78;;;14.88;98.13
10466;BME280;5280;42.600;23.556;2023-05-25T03:35:31;93439.94;;;14.91;98.66
10466;BME280;5280;42.600;23.556;2023-05-25T03:37:58;93442.59;;;14.91;99.30
10466;BME280;5280;42.600;23.556;2023-05-25T03:40:25;93394.00;;;14.52;99.86
10466;BME280;5280;42.600;23.556;2023-05-25T03:42:52;93430.16;;;14.82;99.99
10466;BME280;5280;42.600;23.556;2023-05-25T03:45:19;93379.44;;;14.56;100.00
10466;BME280;5280;42.600;23.556;2023-05-25T03:47:48;93437.59;;;14.78;100.00
10466;BME280;5280;42.600;23.556;2023-05-25T03:50:15;93446.22;;;14.90;100.00
10466;BME280;5280;42.600;23.556;2023-05-25T03:52:43;93447.63;;;14.94;100.00
10466;BME280;5280;42.600;23.556;2023-05-25T03:55:09;93441.22;;;14.87;100.00
10466;BME280;5280;42.600;23.556;2023-05-25T03:57:36;93448.31;;;14.96;100.00
10466;BME280;5280;42.600;23.556;2023-05-25T04:00:04;93458.28;;;14.94;99.34
10466;BME280;5280;42.600;23.556;2023-05-25T04:02:41;93449.50;;;14.84;100.00
10466;BME280;5280;42.600;23.556;2023-05-25T04:05:12;93461.03;;;15.02;100.00
10466;BME280;5280;42.600;23.556;2023-05-25T04:07:39;93464.81;;;15.09;100.00
10466;BME280;5280;42.600;23.556;2023-05-25T04:10:06;93430.56;;;14.87;100.00
10466;BME280;5280;42.600;23.556;2023-05-25T04:12:36;93467.97;;;15.22;99.56
10466;BME280;5280;42.600;23.556;2023-05-25T04:15:04;93456.44;;;15.31;100.00
10466;BME280;5280;42.600;23.556;2023-05-25T04:17:33;93448.00;;;15.36;100.00
10466;BME280;5280;42.600;23.556;2023-05-25T04:20:00;93458.59;;;15.45;100.00
10466;BME280;5280;42.600;23.556;2023-05-25T04:22:29;93375.72;;;15.03;100.00
10466;BME280;5280;42.600;23.556;2023-05-25T04:24:57;93434.22;;;15.40;100.00
10466;BME280;5280;42.600;23.556;2023-05-25T04:27:24;93464.47;;;15.59;100.00
10466;BME280;5280;42.600;23.556;2023-05-25T04:29:52;93463.56;;;15.68;100.00
10466;BME280;5280;42.600;23.556;2023-05-25T04:32:20;93448.94;;;15.72;100.00
10466;BME280;5280;42.600;23.556;2023-05-25T04:34:48;93462.50;;;15.96;100.00
10466;BME280;5280;42.600;23.556;2023-05-25T04:37:15;93452.00;;;16.12;99.50
10466;BME280;5280;42.600;23.556;2023-05-25T04:39:43;93469.72;;;16.39;99.25
10466;BME280;5280;42.600;23.556;2023-05-25T04:42:10;93452.13;;;16.46;97.46
10466;BME280;5280;42.600;23.556;2023-05-25T04:44:37;93351.81;;;16.10;97.29
10466;BME280;5280;42.600;23.556;2023-05-25T04:47:05;93456.63;;;16.89;95.95
10466;BME280;5280;42.600;23.556;2023-05-25T04:49:32;93470.81;;;17.15;94.73
10466;BME280;5280;42.600;23.556;2023-05-25T04:51:59;93476.38;;;17.30;94.33
10466;BME280;5280;42.600;23.556;2023-05-25T04:54:26;93472.16;;;17.53;91.76
10466;BME280;5280;42.600;23.556;2023-05-25T04:56:54;93445.72;;;17.42;88.68
10466;BME280;5280;42.600;23.556;2023-05-25T04:59:23;93435.22;;;17.49;88.78
10466;BME280;5280;42.600;23.556;2023-05-25T05:01:50;93455.38;;;17.69;88.33
10466;BME280;5280;42.600;23.556;2023-05-25T05:04:20;93481.72;;;17.98;87.86
10466;BME280;5280;42.600;23.556;2023-05-25T05:06:47;93463.44;;;17.93;87.39
10466;BME280;5280;42.600;23.556;2023-05-25T05:09:13;93476.88;;;18.01;89.83
10466;BME280;5280;42.600;23.556;2023-05-25T05:11:41;93479.88;;;18.06;90.47
10466;BME280;5280;42.600;23.556;2023-05-25T05:14:09;93474.88;;;18.12;91.62
10466;BME280;5280;42.600;23.556;2023-05-25T05:16:36;93436.91;;;18.00;90.48
10466;BME280;5280;42.600;23.556;2023-05-25T05:19:03;93464.38;;;18.26;90.06
10466;BME280;5280;42.600;23.556;2023-05-25T05:21:30;93462.88;;;18.40;89.77
10466;BME280;5280;42.600;23.556;2023-05-25T05:23:57;93455.84;;;18.39;88.76
10466;BME280;5280;42.600;23.556;2023-05-25T05:26:26;93468.22;;;18.48;87.67
10466;BME280;5280;42.600;23.556;2023-05-25T05:28:54;93469.59;;;18.52;87.70
10466;BME280;5280;42.600;23.556;2023-05-25T05:31:22;93484.00;;;18.67;87.15
10466;BME280;5280;42.600;23.556;2023-05-25T05:33:51;93479.63;;;18.74;86.98
10466;BME280;5280;42.600;23.556;2023-05-25T05:36:18;93478.31;;;18.86;86.00
10466;BME280;5280;42.600;23.556;2023-05-25T05:38:45;93478.81;;;18.82;85.33
10466;BME280;5280;42.600;23.556;2023-05-25T05:41:12;93482.50;;;18.81;84.89
10466;BME280;5280;42.600;23.556;2023-05-25T05:43:39;93485.69;;;18.76;85.45
10466;BME280;5280;42.600;23.556;2023-05-25T05:46:07;93487.88;;;18.73;85.03
10466;BME280;5280;42.600;23.556;2023-05-25T05:48:36;93436.44;;;18.45;85.62
10466;BME280;5280;42.600;23.556;2023-05-25T05:51:03;93478.31;;;18.70;85.99
10466;BME280;5280;42.600;23.556;2023-05-25T05:53:31;93425.75;;;18.45;86.10
10466;BME280;5280;42.600;23.556;2023-05-25T05:55:59;93408.03;;;18.28;86.14
10466;BME280;5280;42.600;23.556;2023-05-25T05:58:26;93449.84;;;18.69;84.80
10466;BME280;5280;42.600;23.556;2023-05-25T06:00:54;93441.19;;;18.67;85.23
10466;BME280;5280;42.600;23.556;2023-05-25T06:03:21;93494.69;;;19.00;84.00
10466;BME280;5280;42.600;23.556;2023-05-25T06:05:49;93499.38;;;19.06;82.67
10466;BME280;5280;42.600;23.556;2023-05-25T06:08:16;93444.84;;;18.66;81.32
10466;BME280;5280;42.600;23.556;2023-05-25T06:10:43;93499.38;;;19.06;81.90
10466;BME280;5280;42.600;23.556;2023-05-25T06:13:10;93492.03;;;19.08;82.72
10466;BME280;5280;42.600;23.556;2023-05-25T06:15:36;93494.03;;;19.06;82.58
10466;BME280;5280;42.600;23.556;2023-05-25T06:18:03;93480.28;;;19.01;82.70
10466;BME280;5280;42.600;23.556;2023-05-25T06:20:30;93475.28;;;18.98;82.64
10466;BME280;5280;42.600;23.556;2023-05-25T06:22:59;93506.03;;;19.26;82.80
10466;BME280;5280;42.600;23.556;2023-05-25T06:25:26;93514.72;;;19.28;82.55
10466;BME280;5280;42.600;23.556;2023-05-25T06:27:53;93456.19;;;19.01;81.85
10466;BME280;5280;42.600;23.556;2023-05-25T06:30:20;93501.00;;;19.47;82.91
10466;BME280;5280;42.600;23.556;2023-05-25T06:32:47;93481.41;;;19.47;83.25
10466;BME280;5280;42.600;23.556;2023-05-25T06:35:16;93486.56;;;19.40;81.22
10466;BME280;5280;42.600;23.556;2023-05-25T06:37:46;93511.34;;;19.66;81.98
10466;BME280;5280;42.600;23.556;2023-05-25T06:40:15;93463.66;;;19.38;79.55
10466;BME280;5280;42.600;23.556;2023-05-25T06:42:42;93497.97;;;19.50;78.99
10466;BME280;5280;42.600;23.556;2023-05-25T06:45:13;93469.97;;;19.53;78.72
10466;BME280;5280;42.600;23.556;2023-05-25T06:47:41;93514.25;;;19.96;78.89
10466;BME280;5280;42.600;23.556;2023-05-25T06:50:09;93512.81;;;20.08;77.26
10466;BME280;5280;42.600;23.556;2023-05-25T06:52:36;93500.56;;;20.13;76.71
10466;BME280;5280;42.600;23.556;2023-05-25T06:55:04;93528.66;;;20.34;76.30
10466;BME280;5280;42.600;23.556;2023-05-25T06:57:34;93516.38;;;20.39;75.56
10466;BME280;5280;42.600;23.556;2023-05-25T07:00:01;93516.28;;;20.55;73.41
10466;BME280;5280;42.600;23.556;2023-05-25T07:02:27;93487.84;;;20.38;74.90
10466;BME280;5280;42.600;23.556;2023-05-25T07:04:54;93501.78;;;20.65;72.64
10466;BME280;5280;42.600;23.556;2023-05-25T07:07:21;93514.03;;;20.90;73.13
10466;BME280;5280;42.600;23.556;2023-05-25T07:09:48;93518.31;;;20.99;71.21
10466;BME280;5280;42.600;23.556;2023-05-25T07:12:17;93480.66;;;20.84;69.53
10466;BME280;5280;42.600;23.556;2023-05-25T07:14:45;93505.91;;;21.21;69.69
10466;BME280;5280;42.600;23.556;2023-05-25T07:17:12;93499.97;;;21.25;69.46
10466;BME280;5280;42.600;23.556;2023-05-25T07:19:39;93504.78;;;21.30;65.29
10466;BME280;5280;42.600;23.556;2023-05-25T07:22:07;93504.72;;;21.53;63.83
10466;BME280;5280;42.600;23.556;2023-05-25T07:24:42;93422.50;;;21.06;63.88
10466;BME280;5280;42.600;23.556;2023-05-25T07:27:12;93480.16;;;21.41;61.56
10466;BME280;5280;42.600;23.556;2023-05-25T07:29:39;93459.66;;;21.55;62.86
10466;BME280;5280;42.600;23.556;2023-05-25T07:32:07;93519.41;;;21.79;65.97
10466;BME280;5280;42.600;23.556;2023-05-25T07:34:34;93501.56;;;21.93;67.19
10466;BME280;5280;42.600;23.556;2023-05-25T07:37:01;93495.56;;;22.06;67.01
10466;BME280;5280;42.600;23.556;2023-05-25T07:39:28;93488.91;;;22.02;66.24
10466;BME280;5280;42.600;23.556;2023-05-25T07:41:55;93512.59;;;22.27;64.68
10466;BME280;5280;42.600;23.556;2023-05-25T07:44:22;93497.88;;;22.09;63.26
10466;BME280;5280;42.600;23.556;2023-05-25T07:46:49;93523.22;;;22.14;66.86
10466;BME280;5280;42.600;23.556;2023-05-25T07:49:17;93528.44;;;22.16;65.46
10466;BME280;5280;42.600;23.556;2023-05-25T07:51:44;93513.00;;;22.10;65.01
10466;BME280;5280;42.600;23.556;2023-05-25T07:54:14;93498.56;;;21.96;65.21
10466;BME280;5280;42.600;23.556;2023-05-25T07:56:41;93522.00;;;22.02;66.17
10466;BME280;5280;42.600;23.556;2023-05-25T07:59:09;93496.38;;;21.77;65.68
10466;BME280;5280;42.600;23.556;2023-05-25T08:01:37;93548.81;;;21.81;66.53
10466;BME280;5280;42.600;23.556;2023-05-25T08:04:04;93503.88;;;21.37;68.62
10466;BME280;5280;42.600;23.556;2023-05-25T08:06:33;93569.84;;;21.63;69.55
10466;BME280;5280;42.600;23.556;2023-05-25T08:09:01;93563.97;;;21.44;69.86
10466;BME280;5280;42.600;23.556;2023-05-25T08:11:29;93526.53;;;20.97;70.50
10466;BME280;5280;42.600;23.556;2023-05-25T08:13:56;93478.69;;;20.55;72.20
10466;BME280;5280;42.600;23.556;2023-05-25T08:16:24;93570.28;;;20.91;72.99
10466;BME280;5280;42.600;23.556;2023-05-25T08:18:51;93558.78;;;20.75;76.09
10466;BME280;5280;42.600;23.556;2023-05-25T08:21:18;93549.28;;;20.64;77.75
10466;BME280;5280;42.600;23.556;2023-05-25T08:23:46;93567.09;;;20.65;79.24
10466;BME280;5280;42.600;23.556;2023-05-25T08:26:14;93530.94;;;20.45;79.16
10466;BME280;5280;42.600;23.556;2023-05-25T08:28:42;93548.44;;;20.41;81.06
10466;BME280;5280;42.600;23.556;2023-05-25T08:31:09;93543.94;;;20.33;83.43
10466;BME280;5280;42.600;23.556;2023-05-25T08:33:36;93546.16;;;20.22;84.75
10466;BME280;5280;42.600;23.556;2023-05-25T08:36:03;93510.88;;;19.94;86.57
10466;BME280;5280;42.600;23.556;2023-05-25T08:38:31;93542.38;;;20.00;87.06
10466;BME280;5280;42.600;23.556;2023-05-25T08:41:03;93549.63;;;19.91;88.59
10466;BME280;5280;42.600;23.556;2023-05-25T08:43:31;93540.44;;;19.77;91.25
10466;BME280;5280;42.600;23.556;2023-05-25T08:46:03;93535.06;;;19.77;91.04
10466;BME280;5280;42.600;23.556;2023-05-25T08:48:33;93552.31;;;19.83;93.46
10466;BME280;5280;42.600;23.556;2023-05-25T08:51:03;93554.56;;;19.71;91.92
10466;BME280;5280;42.600;23.556;2023-05-25T08:53:34;93555.72;;;19.69;90.56
10466;BME280;5280;42.600;23.556;2023-05-25T08:56:09;93520.59;;;19.31;92.14
10466;BME280;5280;42.600;23.556;2023-05-25T08:58:40;93560.47;;;19.43;91.86
10466;BME280;5280;42.600;23.556;2023-05-25T09:01:13;93574.19;;;19.23;93.34
10466;BME280;5280;42.600;23.556;2023-05-25T09:03:42;93557.31;;;19.07;92.06
10466;BME280;5280;42.600;23.556;2023-05-25T09:06:10;93585.78;;;19.16;94.35
10466;BME280;5280;42.600;23.556;2023-05-25T09:08:37;93562.31;;;19.10;96.38
10466;BME280;5280;42.600;23.556;2023-05-25T09:11:06;93582.75;;;18.95;96.08
10466;BME280;5280;42.600;23.556;2023-05-25T09:13:34;93583.06;;;18.83;94.64
10466;BME280;5280;42.600;23.556;2023-05-25T09:16:02;93583.41;;;18.88;93.54
10466;BME280;5280;42.600;23.556;2023-05-25T09:18:29;93585.09;;;18.89;94.64
10466;BME280;5280;42.600;23.556;2023-05-25T09:20:55;93583.91;;;18.76;93.73
10466;BME280;5280;42.600;23.556;2023-05-25T09:23:22;93586.28;;;18.87;93.60
10466;BME280;5280;42.600;23.556;2023-05-25T09:25:50;93559.63;;;18.61;96.19
10466;BME280;5280;42.600;23.556;2023-05-25T09:28:19;93552.09;;;18.65;95.34
10466;BME280;5280;42.600;23.556;2023-05-25T09:30:46;93543.91;;;18.66;95.06
10466;BME280;5280;42.600;23.556;2023-05-25T09:33:14;93571.88;;;18.96;89.79
10466;BME280;5280;42.600;23.556;2023-05-25T09:35:43;93548.44;;;18.82;89.61
10466;BME280;5280;42.600;23.556;2023-05-25T09:38:12;93577.06;;;19.06;92.99
10466;BME280;5280;42.600;23.556;2023-05-25T09:40:39;93557.66;;;18.96;91.30
10466;BME280;5280;42.600;23.556;2023-05-25T09:43:06;93583.09;;;19.24;89.65
10466;BME280;5280;42.600;23.556;2023-05-25T09:45:35;93566.19;;;19.15;87.37
10466;BME280;5280;42.600;23.556;2023-05-25T09:48:05;93575.38;;;19.29;79.85
10466;BME280;5280;42.600;23.556;2023-05-25T09:50:32;93564.50;;;19.22;79.46
10466;BME280;5280;42.600;23.556;2023-05-25T09:53:01;93566.03;;;19.17;82.87
10466;BME280;5280;42.600;23.556;2023-05-25T09:55:29;93572.03;;;19.27;83.91
10466;BME280;5280;42.600;23.556;2023-05-25T09:57:56;93559.16;;;19.22;84.54
10466;BME280;5280;42.600;23.556;2023-05-25T10:00:23;93525.50;;;19.12;83.54
10466;BME280;5280;42.600;23.556;2023-05-25T10:02:53;93551.09;;;19.30;84.37
10466;BME280;5280;42.600;23.556;2023-05-25T10:05:21;93515.75;;;19.19;81.52
10466;BME280;5280;42.600;23.556;2023-05-25T10:07:52;93525.28;;;19.38;80.32
10466;BME280;5280;42.600;23.556;2023-05-25T10:10:20;93496.97;;;19.35;81.12
10466;BME280;5280;42.600;23.556;2023-05-25T10:12:49;93526.75;;;19.64;73.50
10466;BME280;5280;42.600;23.556;2023-05-25T10:15:18;93537.91;;;19.84;72.34
10466;BME280;5280;42.600;23.556;2023-05-25T10:17:53;93532.19;;;19.95;71.71
10466;BME280;5280;42.600;23.556;2023-05-25T10:20:22;93507.34;;;20.01;70.58
10466;BME280;5280;42.600;23.556;2023-05-25T10:22:53;93520.63;;;20.26;70.87
10466;BME280;5280;42.600;23.556;2023-05-25T10:25:25;93527.50;;;20.36;69.81
10466;BME280;5280;42.600;23.556;2023-05-25T10:27:57;93514.97;;;20.51;70.57
10466;BME280;5280;42.600;23.556;2023-05-25T10:30:25;93512.16;;;20.68;67.54
10466;BME280;5280;42.600;23.556;2023-05-25T10:32:54;93519.75;;;20.87;70.26
10466;BME280;5280;42.600;23.556;2023-05-25T10:35:21;93512.00;;;20.92;70.74
10466;BME280;5280;42.600;23.556;2023-05-25T10:37:51;93466.16;;;20.71;67.79
10466;BME280;5280;42.600;23.556;2023-05-25T10:40:19;93497.19;;;20.96;69.17
10466;BME280;5280;42.600;23.556;2023-05-25T10:42:47;93508.03;;;21.02;70.99
10466;BME280;5280;42.600;23.556;2023-05-25T10:45:14;93506.91;;;20.97;64.95
10466;BME280;5280;42.600;23.556;2023-05-25T10:47:42;93504.41;;;20.95;68.93
10466;BME280;5280;42.600;23.556;2023-05-25T10:50:19;93498.94;;;21.03;69.31
10466;BME280;5280;42.600;23.556;2023-05-25T10:52:56;93490.50;;;20.92;67.86
10466;BME280;5280;42.600;23.556;2023-05-25T10:55:24;93499.91;;;20.88;67.60
10466;BME280;5280;42.600;23.556;2023-05-25T10:58:06;93493.00;;;20.93;68.22
10466;BME280;5280;42.600;23.556;2023-05-25T11:00:37;93494.19;;;20.91;70.39
10466;BME280;5280;42.600;23.556;2023-05-25T11:03:04;93482.16;;;20.87;69.81
10466;BME280;5280;42.600;23.556;2023-05-25T11:05:36;93493.25;;;20.84;70.22
10466;BME280;5280;42.600;23.556;2023-05-25T11:08:05;93459.22;;;20.53;71.06
10466;BME280;5280;42.600;23.556;2023-05-25T11:10:50;93481.91;;;20.74;71.21
10466;BME280;5280;42.600;23.556;2023-05-25T11:13:23;93477.38;;;20.74;74.19
10466;BME280;5280;42.600;23.556;2023-05-25T11:16:12;93490.69;;;20.90;71.97
10466;BME280;5280;42.600;23.556;2023-05-25T11:18:40;93488.63;;;20.92;70.88
10466;BME280;5280;42.600;23.556;2023-05-25T11:21:13;93471.16;;;20.96;69.81
10466;BME280;5280;42.600;23.556;2023-05-25T11:23:54;93493.19;;;21.15;67.42
10466;BME280;5280;42.600;23.556;2023-05-25T11:26:25;93490.59;;;21.21;66.81
10466;BME280;5280;42.600;23.556;2023-05-25T11:28:53;93486.06;;;21.22;69.38
10466;BME280;5280;42.600;23.556;2023-05-25T11:31:27;93490.50;;;21.15;65.93
10466;BME280;5280;42.600;23.556;2023-05-25T11:33:56;93484.63;;;21.11;68.22
10466;BME280;5280;42.600;23.556;2023-05-25T11:36:27;93484.84;;;21.24;68.77
10466;BME280;5280;42.600;23.556;2023-05-25T11:38:56;93473.81;;;21.19;70.03
10466;BME280;5280;42.600;23.556;2023-05-25T11:41:26;93477.72;;;21.17;70.15
10466;BME280;5280;42.600;23.556;2023-05-25T11:43:54;93477.56;;;21.10;68.50
10466;BME280;5280;42.600;23.556;2023-05-25T11:46:21;93480.59;;;21.07;70.48
10466;BME280;5280;42.600;23.556;2023-05-25T11:48:50;93450.19;;;20.92;72.63
10466;BME280;5280;42.600;23.556;2023-05-25T11:51:18;93473.09;;;21.02;73.32
10466;BME280;5280;42.600;23.556;2023-05-25T11:53:48;93473.25;;;21.24;73.88
10466;BME280;5280;42.600;23.556;2023-05-25T11:56:17;93467.25;;;21.22;72.18
10466;BME280;5280;42.600;23.556;2023-05-25T11:58:46;93454.25;;;21.25;74.43
10466;BME280;5280;42.600;23.556;2023-05-25T12:01:14;93465.13;;;21.32;77.44
10466;BME280;5280;42.600;23.556;2023-05-25T12:03:48;93469.47;;;21.47;74.09
10466;BME280;5280;42.600;23.556;2023-05-25T12:06:27;93478.22;;;21.50;73.96
10466;BME280;5280;42.600;23.556;2023-05-25T12:08:56;93468.75;;;21.54;71.27
10466;BME280;5280;42.600;23.556;2023-05-25T12:11:28;93472.25;;;21.54;70.90
10466;BME280;5280;42.600;23.556;2023-05-25T12:13:57;93467.81;;;21.46;72.37
10466;BME280;5280;42.600;23.556;2023-05-25T12:16:25;93461.34;;;21.56;73.36
10466;BME280;5280;42.600;23.556;2023-05-25T12:18:53;93460.84;;;21.52;71.28
10466;BME280;5280;42.600;23.556;2023-05-25T12:21:21;93449.28;;;21.52;72.46
10466;BME280;5280;42.600;23.556;2023-05-25T12:23:49;93459.75;;;21.46;71.58
10466;BME280;5280;42.600;23.556;2023-05-25T12:26:18;93447.13;;;21.47;73.38
10466;BME280;5280;42.600;23.556;2023-05-25T12:29:00;93432.38;;;21.43;70.36
10466;BME280;5280;42.600;23.556;2023-05-25T12:31:29;93431.47;;;21.36;70.61
10466;BME280;5280;42.600;23.556;2023-05-25T12:34:03;93437.41;;;21.46;73.81
10466;BME280;5280;42.600;23.556;2023-05-25T12:36:43;93434.50;;;21.47;72.85
10466;BME280;5280;42.600;23.556;2023-05-25T12:39:12;93422.38;;;21.52;71.35
10466;BME280;5280;42.600;23.556;2023-05-25T12:41:47;93425.72;;;21.54;69.59
10466;BME280;5280;42.600;23.556;2023-05-25T12:44:22;93428.50;;;21.60;71.57
10466;BME280;5280;42.600;23.556;2023-05-25T12:46:51;93421.34;;;21.67;74.61
10466;BME280;5280;42.600;23.556;2023-05-25T12:49:23;93379.72;;;21.48;73.31
10466;BME280;5280;42.600;23.556;2023-05-25T12:52:02;93413.50;;;21.87;71.57
10466;BME280;5280;42.600;23.556;2023-05-25T12:54:35;93374.78;;;21.67;71.33
10466;BME280;5280;42.600;23.556;2023-05-25T12:57:04;93382.81;;;21.96;68.21
10466;BME280;5280;42.600;23.556;2023-05-25T12:59:33;93416.25;;;22.23;64.75
10466;BME280;5280;42.600;23.556;2023-05-25T13:02:02;93413.19;;;22.26;60.83
10466;BME280;5280;42.600;23.556;2023-05-25T13:04:29;93404.91;;;22.27;61.10
10466;BME280;5280;42.600;23.556;2023-05-25T13:06:56;93403.44;;;22.25;62.02
10466;BME280;5280;42.600;23.556;2023-05-25T13:09:24;93406.38;;;22.30;57.83